Fair Oaks Ranch, California
Current Conditions -  °F | °C
As of 4:51 AM on Friday 19 Dec 2014 (Local Time) from KVNY Reporting Station
Clear Clear  
Wind Chill: 44°   Ceiling: Unl
Heat Index: 46°   Visibility: 10mi
Dew Point: 43°   Wind: 5mph
Humidity: 89%   Direction: 290°WNW
Pressure: 30.21"   Gusts: NA
Location:  34.4187°N, 118.412°W
Report Text: KVNY 191251Z 29004KT 10SM CLR 08/06 A3021 RMK AO2 SLP227 T00780061
Loading
Personal Weather Stations






























Interactive Weather Map New forecast layout! Learn more

10-Day Weather Forecast

Advertisements
Track Severe Weather on mobile